createdAt,value
2022-08-04T00:01:51.984Z,61.23
2022-08-04T00:04:32.307Z,61.42
2022-08-04T00:07:44.096Z,61.69
2022-08-04T00:10:18.122Z,61.61
2022-08-04T00:12:51.820Z,61.79
2022-08-04T00:15:20.233Z,63.98
2022-08-04T00:18:01.414Z,63.13
2022-08-04T00:20:32.406Z,59.03
2022-08-04T00:23:02.221Z,57.27
2022-08-04T00:25:30.216Z,57.62
2022-08-04T00:28:00.962Z,58.23
2022-08-04T00:30:28.756Z,58.62
2022-08-04T00:32:58.644Z,59.06
2022-08-04T00:35:28.874Z,59.53
2022-08-04T00:37:57.341Z,59.79
2022-08-04T00:40:43.771Z,60.14
2022-08-04T00:43:53.415Z,60.22
2022-08-04T00:47:08.555Z,60.45
2022-08-04T00:50:09.602Z,60.75
2022-08-04T00:52:46.559Z,61.10
2022-08-04T00:55:35.195Z,61.83
2022-08-04T00:58:23.366Z,64.46
2022-08-04T01:01:03.404Z,62.83
2022-08-04T01:03:50.130Z,58.26
2022-08-04T01:07:12.578Z,57.11
2022-08-04T01:10:05.361Z,57.55
2022-08-04T01:13:07.762Z,58.28
2022-08-04T01:15:59.990Z,58.80
2022-08-04T01:19:02.199Z,59.58
2022-08-04T01:21:29.974Z,60.10
2022-08-04T01:24:30.980Z,60.79
2022-08-04T01:27:27.023Z,61.13
2022-08-04T01:29:59.886Z,61.26
2022-08-04T01:32:39.637Z,61.42
2022-08-04T01:35:47.528Z,64.44
2022-08-04T01:38:30.520Z,63.23
2022-08-04T01:41:04.106Z,58.32
2022-08-04T01:43:35.908Z,57.32
2022-08-04T01:46:05.749Z,57.84
2022-08-04T01:48:35.935Z,58.57
2022-08-04T01:51:08.132Z,59.38
2022-08-04T01:53:42.110Z,59.64
2022-08-04T01:56:12.093Z,59.96
2022-08-04T01:58:41.772Z,60.40
2022-08-04T02:01:13.866Z,60.84
2022-08-04T02:04:21.272Z,61.23
2022-08-04T02:06:59.523Z,61.29
2022-08-04T02:09:54.144Z,61.74
2022-08-04T02:12:40.879Z,64.12
2022-08-04T02:15:36.268Z,62.74
2022-08-04T02:18:10.864Z,58.40
2022-08-04T02:20:44.396Z,57.31
2022-08-04T02:23:44.833Z,57.70
2022-08-04T02:26:22.336Z,58.32
2022-08-04T02:29:32.099Z,59.27
2022-08-04T02:32:06.961Z,59.78
2022-08-04T02:35:17.511Z,60.48
2022-08-04T02:38:08.634Z,60.61
2022-08-04T02:40:36.696Z,61.28
2022-08-04T02:43:05.908Z,63.32
2022-08-04T02:45:38.061Z,62.95
2022-08-04T02:48:30.058Z,59.57
2022-08-04T02:50:58.947Z,58.07
2022-08-04T02:53:27.276Z,58.79
2022-08-04T02:55:56.619Z,59.30
2022-08-04T02:58:26.244Z,59.86
2022-08-04T03:00:54.154Z,60.51
2022-08-04T03:04:08.755Z,61.03
2022-08-04T03:07:20.648Z,61.41
2022-08-04T03:10:04.014Z,64.50
2022-08-04T03:12:59.019Z,62.83
2022-08-04T03:15:44.834Z,57.64
2022-08-04T03:18:37.382Z,56.79
2022-08-04T03:21:26.934Z,57.42
2022-08-04T03:24:38.514Z,58.26
2022-08-04T03:27:15.767Z,58.65
2022-08-04T03:30:01.934Z,60.03
2022-08-04T03:33:13.334Z,60.39
2022-08-04T03:36:28.587Z,61.08
2022-08-04T03:39:18.726Z,61.28
2022-08-04T03:42:12.126Z,64.35
2022-08-04T03:45:23.973Z,62.79
2022-08-04T03:48:30.035Z,57.87
2022-08-04T03:51:36.096Z,57.22
2022-08-04T03:54:40.359Z,57.88
2022-08-04T03:57:55.185Z,58.93
2022-08-04T04:00:40.972Z,59.90
2022-08-04T04:04:02.555Z,60.56
2022-08-04T04:07:05.138Z,60.87
2022-08-04T04:10:06.351Z,61.44
2022-08-04T04:12:59.727Z,64.05
2022-08-04T04:15:36.540Z,62.25
2022-08-04T04:18:16.670Z,58.19
2022-08-04T04:21:13.020Z,56.88
2022-08-04T04:24:02.001Z,57.49
2022-08-04T04:27:18.184Z,58.07
2022-08-04T04:30:00.826Z,58.56
2022-08-04T04:32:50.781Z,58.75
2022-08-04T04:36:05.694Z,58.94
2022-08-04T04:38:48.506Z,59.30
2022-08-04T04:41:42.375Z,59.41
2022-08-04T04:45:00.344Z,59.68
2022-08-04T04:48:10.829Z,59.95
2022-08-04T04:51:12.543Z,59.83
2022-08-04T04:54:07.972Z,59.76
2022-08-04T04:56:41.468Z,59.75
2022-08-04T04:59:15.708Z,59.85
2022-08-04T05:02:23.857Z,59.99
2022-08-04T05:05:30.432Z,60.00
2022-08-04T05:08:51.225Z,60.06
2022-08-04T05:11:43.768Z,60.13
2022-08-04T05:14:37.035Z,60.31
2022-08-04T05:17:35.881Z,60.60
2022-08-04T05:20:15.204Z,60.68
2022-08-04T05:23:01.167Z,60.77
2022-08-04T05:25:50.074Z,60.88
2022-08-04T05:29:07.468Z,60.78
2022-08-04T05:31:41.495Z,60.80
2022-08-04T05:34:23.285Z,60.75
2022-08-04T05:36:56.448Z,60.90
2022-08-04T05:39:36.136Z,60.85
2022-08-04T05:42:07.347Z,60.72
2022-08-04T05:44:36.206Z,60.42
2022-08-04T05:47:05.257Z,60.27
2022-08-04T05:49:34.174Z,59.78
2022-08-04T05:52:04.160Z,58.83
2022-08-04T05:54:34.457Z,58.66
2022-08-04T05:57:05.537Z,58.51
2022-08-04T05:59:38.843Z,57.79
2022-08-04T06:02:08.543Z,57.59
2022-08-04T06:04:40.950Z,57.68
2022-08-04T06:07:11.378Z,57.02
2022-08-04T06:09:39.196Z,57.39
2022-08-04T06:12:11.707Z,56.59
2022-08-04T06:14:44.820Z,55.96
2022-08-04T06:18:35.586Z,55.71
2022-08-04T06:20:19.460Z,55.23
2022-08-04T06:22:59.247Z,54.94
2022-08-04T06:25:34.571Z,54.59
2022-08-04T06:28:05.998Z,54.10
2022-08-04T06:30:34.949Z,53.48
2022-08-04T06:33:13.613Z,53.24
2022-08-04T06:35:41.843Z,53.39
2022-08-04T06:38:09.987Z,52.55
2022-08-04T06:40:41.016Z,50.92
2022-08-04T06:43:09.137Z,51.24
2022-08-04T06:45:40.207Z,50.53
2022-08-04T06:48:09.254Z,49.83
2022-08-04T06:51:32.231Z,49.25
2022-08-04T06:53:28.472Z,48.35
2022-08-04T06:55:58.080Z,48.61
2022-08-04T06:58:26.278Z,47.85
2022-08-04T07:00:55.104Z,47.73
2022-08-04T07:03:23.064Z,46.73
2022-08-04T07:05:52.019Z,46.25
2022-08-04T07:08:21.478Z,45.83
2022-08-04T07:10:49.980Z,44.47
2022-08-04T07:13:18.644Z,43.81
2022-08-04T07:15:48.235Z,43.19
2022-08-04T07:18:16.400Z,43.24
2022-08-04T07:20:46.550Z,42.36
2022-08-04T07:23:18.037Z,41.19
2022-08-04T07:26:12.051Z,39.50
2022-08-04T07:28:42.077Z,39.63
2022-08-04T07:31:31.795Z,39.26
2022-08-04T07:34:16.512Z,38.61
2022-08-04T07:36:56.100Z,37.06
2022-08-04T07:39:29.548Z,36.72
2022-08-04T07:42:02.274Z,35.66
2022-08-04T07:44:35.220Z,35.01
2022-08-04T07:47:07.311Z,34.82
2022-08-04T07:49:55.525Z,33.72
2022-08-04T07:52:29.102Z,33.76
2022-08-04T07:54:57.071Z,32.96
2022-08-04T07:57:40.424Z,32.34
2022-08-04T08:00:14.355Z,32.19
2022-08-04T08:03:01.588Z,31.38
2022-08-04T08:05:30.219Z,30.57
2022-08-04T08:07:58.692Z,30.79
2022-08-04T08:10:26.523Z,30.61
2022-08-04T08:12:54.588Z,29.97
2022-08-04T08:15:22.886Z,29.56
2022-08-04T08:17:58.902Z,29.73
2022-08-04T08:20:31.327Z,29.83
2022-08-04T08:23:01.422Z,29.27
2022-08-04T08:25:33.748Z,28.00
2022-08-04T08:28:04.510Z,27.93
2022-08-04T08:30:34.152Z,27.78
2022-08-04T08:33:07.114Z,27.79
2022-08-04T08:35:56.318Z,27.82
2022-08-04T08:38:50.171Z,28.09
2022-08-04T08:42:02.994Z,27.89
2022-08-04T08:45:21.159Z,27.43
2022-08-04T08:48:16.662Z,26.23
2022-08-04T08:51:24.884Z,26.54
2022-08-04T08:54:05.717Z,26.40
2022-08-04T08:56:45.408Z,26.63
2022-08-04T08:59:27.011Z,26.63
2022-08-04T09:02:16.862Z,26.35
2022-08-04T09:05:23.321Z,27.22
2022-08-04T09:08:10.533Z,27.26
2022-08-04T09:10:49.180Z,26.82
2022-08-04T09:13:24.667Z,27.20
2022-08-04T09:16:14.487Z,26.86
2022-08-04T09:18:56.082Z,26.84
2022-08-04T09:21:39.059Z,26.92
2022-08-04T09:24:36.106Z,26.86
2022-08-04T09:27:23.306Z,27.07
2022-08-04T09:30:08.845Z,26.70
2022-08-04T09:32:41.370Z,26.81
2022-08-04T09:35:30.392Z,26.98
2022-08-04T09:38:04.187Z,27.03
2022-08-04T09:40:55.408Z,27.10
2022-08-04T09:43:59.022Z,27.03
2022-08-04T09:46:52.275Z,27.25
2022-08-04T09:49:30.097Z,27.33
2022-08-04T09:52:22.180Z,26.85
2022-08-04T09:55:05.945Z,26.57
2022-08-04T09:57:50.499Z,26.75
2022-08-04T10:00:20.919Z,26.78
2022-08-04T10:03:13.670Z,26.83
2022-08-04T10:06:16.819Z,26.89
2022-08-04T10:09:19.276Z,26.61
2022-08-04T10:12:27.904Z,26.56
2022-08-04T10:15:20.308Z,26.58
2022-08-04T10:17:57.322Z,26.39
2022-08-04T10:20:56.736Z,26.74
2022-08-04T10:23:56.286Z,26.78
2022-08-04T10:26:47.157Z,26.63
2022-08-04T10:29:20.114Z,26.60
2022-08-04T10:32:14.761Z,26.69
2022-08-04T10:35:15.870Z,26.76
2022-08-04T10:38:13.457Z,26.53
2022-08-04T10:40:46.943Z,26.48
2022-08-04T10:43:59.322Z,26.38
2022-08-04T10:46:44.500Z,26.64
2022-08-04T10:49:40.948Z,26.60
2022-08-04T10:52:21.147Z,26.19
2022-08-04T10:54:58.468Z,26.11
2022-08-04T10:57:57.949Z,26.09
2022-08-04T11:00:28.700Z,26.41
2022-08-04T11:03:23.304Z,26.66
2022-08-04T11:05:59.238Z,26.73
2022-08-04T11:08:35.947Z,26.74
2022-08-04T11:11:15.794Z,26.60
2022-08-04T11:13:57.242Z,26.95
2022-08-04T11:16:30.427Z,26.68
2022-08-04T11:19:44.680Z,26.94
2022-08-04T11:22:26.069Z,27.02
2022-08-04T11:25:15.256Z,27.03
2022-08-04T11:28:01.980Z,27.04
2022-08-04T11:30:45.792Z,26.77
2022-08-04T11:33:54.524Z,26.91
2022-08-04T11:37:00.676Z,27.22
2022-08-04T11:39:35.911Z,27.09
2022-08-04T11:42:34.827Z,27.27
2022-08-04T11:45:07.178Z,27.39
2022-08-04T11:48:11.757Z,27.38
2022-08-04T11:50:46.078Z,27.74
2022-08-04T11:53:21.179Z,27.90
2022-08-04T11:56:07.749Z,27.78
2022-08-04T11:58:38.225Z,27.67
2022-08-04T12:01:13.491Z,27.70
2022-08-04T12:04:14.627Z,27.77
2022-08-04T12:07:15.166Z,27.71
2022-08-04T12:10:38.006Z,27.77
2022-08-04T12:13:38.509Z,27.93
2022-08-04T12:16:30.879Z,27.70
2022-08-04T12:19:03.321Z,27.96
2022-08-04T12:21:43.554Z,28.01
2022-08-04T12:24:36.972Z,27.90
2022-08-04T12:27:30.859Z,27.98
2022-08-04T12:30:58.597Z,28.16
2022-08-04T12:33:00.596Z,28.16
2022-08-04T12:35:33.671Z,28.63
2022-08-04T12:38:14.556Z,28.84
2022-08-04T12:40:53.935Z,28.98
2022-08-04T12:43:44.422Z,29.13
2022-08-04T12:46:28.188Z,29.18
2022-08-04T12:49:02.345Z,29.18
2022-08-04T12:52:08.510Z,29.48
2022-08-04T12:54:37.697Z,29.34
2022-08-04T12:57:07.508Z,29.16
2022-08-04T12:59:45.309Z,29.17
2022-08-04T13:02:31.105Z,29.47
2022-08-04T13:05:02.091Z,29.43
2022-08-04T13:07:46.883Z,29.39
2022-08-04T13:10:18.441Z,29.65
2022-08-04T13:13:01.777Z,29.96
2022-08-04T13:15:31.015Z,30.08
2022-08-04T13:18:14.861Z,30.16
2022-08-04T13:20:44.001Z,30.33
2022-08-04T13:23:20.206Z,30.54
2022-08-04T13:26:42.869Z,30.52
2022-08-04T13:28:47.103Z,30.45
2022-08-04T13:31:35.608Z,30.35
2022-08-04T13:34:08.556Z,30.40
2022-08-04T13:36:48.548Z,30.56
2022-08-04T13:39:20.717Z,30.49
2022-08-04T13:41:57.936Z,30.42
2022-08-04T13:44:34.953Z,30.63
2022-08-04T13:47:14.828Z,30.74
2022-08-04T13:50:01.194Z,30.61
2022-08-04T13:52:33.229Z,30.54
2022-08-04T13:55:01.788Z,30.57
2022-08-04T13:57:34.017Z,30.38
2022-08-04T14:00:08.086Z,30.52
2022-08-04T14:02:49.094Z,30.47
2022-08-04T14:05:27.478Z,30.50
2022-08-04T14:08:15.615Z,30.84
2022-08-04T14:10:46.035Z,31.36
2022-08-04T14:13:14.009Z,30.98
2022-08-04T14:16:01.680Z,30.70
2022-08-04T14:18:33.135Z,30.95
2022-08-04T14:21:06.611Z,31.12
2022-08-04T14:23:51.652Z,31.18
2022-08-04T14:26:35.798Z,31.28
2022-08-04T14:29:28.557Z,31.50
2022-08-04T14:32:12.660Z,31.64
2022-08-04T14:34:53.470Z,31.87
2022-08-04T14:37:23.122Z,32.00
2022-08-04T14:40:19.364Z,31.87
2022-08-04T14:42:54.272Z,31.61
2022-08-04T14:45:54.080Z,31.54
2022-08-04T14:48:22.828Z,31.93
2022-08-04T14:50:52.698Z,32.39
2022-08-04T14:53:26.620Z,32.07
2022-08-04T14:55:58.465Z,32.26
2022-08-04T14:58:39.067Z,32.21
2022-08-04T15:01:12.201Z,32.33
2022-08-04T15:03:50.617Z,32.45
2022-08-04T15:06:26.283Z,32.42
2022-08-04T15:08:57.956Z,32.46
2022-08-04T15:11:26.192Z,32.37
2022-08-04T15:13:55.803Z,32.32
2022-08-04T15:16:27.162Z,32.38
2022-08-04T15:18:56.999Z,32.56
2022-08-04T15:21:29.052Z,32.69
2022-08-04T15:23:58.433Z,32.85
2022-08-04T15:26:38.539Z,33.13
2022-08-04T15:29:20.930Z,33.14
2022-08-04T15:32:08.225Z,32.97
2022-08-04T15:34:52.184Z,32.90
2022-08-04T15:37:40.348Z,32.58
2022-08-04T15:40:38.802Z,32.86
2022-08-04T15:43:47.323Z,33.15
2022-08-04T15:46:44.814Z,33.22
2022-08-04T15:49:35.711Z,33.27
2022-08-04T15:52:12.270Z,33.36
2022-08-04T15:55:32.391Z,33.20
2022-08-04T15:58:05.953Z,32.98
2022-08-04T16:00:49.512Z,33.32
2022-08-04T16:03:58.048Z,33.45
2022-08-04T16:06:23.923Z,33.34
2022-08-04T16:09:03.281Z,33.25
2022-08-04T16:11:33.076Z,33.10
2022-08-04T16:14:01.678Z,33.17
2022-08-04T16:16:31.935Z,33.31
2022-08-04T16:19:16.685Z,33.47
2022-08-04T16:21:57.069Z,33.54
2022-08-04T16:24:30.776Z,33.68
2022-08-04T16:27:03.925Z,33.81
2022-08-04T16:29:40.773Z,33.84
2022-08-04T16:32:16.218Z,33.88
2022-08-04T16:34:54.426Z,33.88
2022-08-04T16:37:30.940Z,34.00
2022-08-04T16:40:39.225Z,34.04
2022-08-04T16:43:10.241Z,34.20
2022-08-04T16:46:18.405Z,34.40
2022-08-04T16:49:06.464Z,34.30
2022-08-04T16:51:34.731Z,34.52
2022-08-04T16:54:05.538Z,34.25
2022-08-04T16:56:35.662Z,34.28
2022-08-04T16:59:12.455Z,34.36
2022-08-04T17:01:48.393Z,34.55
2022-08-04T17:04:16.854Z,34.62
2022-08-04T17:06:49.424Z,34.60
2022-08-04T17:09:19.724Z,34.73
2022-08-04T17:11:48.545Z,34.76
2022-08-04T17:14:31.414Z,34.83
2022-08-04T17:17:04.456Z,34.86
2022-08-04T17:19:39.714Z,34.96
2022-08-04T17:22:10.499Z,35.13
2022-08-04T17:24:41.087Z,35.36
2022-08-04T17:28:20.487Z,35.35
2022-08-04T17:29:59.944Z,35.60
2022-08-04T17:32:28.060Z,36.21
2022-08-04T17:37:52.280Z,36.33
2022-08-04T17:40:25.733Z,36.70
2022-08-04T17:44:00.983Z,36.82
2022-08-04T17:46:29.073Z,36.98
2022-08-04T17:49:19.252Z,37.36
2022-08-04T17:52:06.531Z,37.66
2022-08-04T17:54:40.499Z,37.84
2022-08-04T17:57:23.551Z,37.64
2022-08-04T17:59:59.133Z,37.84
2022-08-04T18:02:32.977Z,38.02
2022-08-04T18:05:11.703Z,38.13
2022-08-04T18:08:39.048Z,38.41
2022-08-04T18:10:54.614Z,38.84
2022-08-04T18:13:26.412Z,39.01
2022-08-04T18:16:05.415Z,39.11
2022-08-04T18:18:33.703Z,39.32
2022-08-04T18:21:02.918Z,39.51
2022-08-04T18:23:33.646Z,39.66
2022-08-04T18:26:03.825Z,39.76
2022-08-04T18:28:33.447Z,40.49
2022-08-04T18:31:02.339Z,40.95
2022-08-04T18:33:40.841Z,40.88
2022-08-04T18:36:33.229Z,40.85
2022-08-04T18:42:00.961Z,40.88
2022-08-04T18:44:49.302Z,41.06
2022-08-04T18:47:29.872Z,41.30
2022-08-04T18:50:59.139Z,41.42
2022-08-04T18:52:59.260Z,41.77
2022-08-04T18:55:57.100Z,41.79
2022-08-04T18:58:26.746Z,41.88
2022-08-04T19:01:00.403Z,41.97
2022-08-04T19:03:53.944Z,41.99
2022-08-04T19:06:32.418Z,42.04
2022-08-04T19:09:00.777Z,41.99
2022-08-04T19:11:54.022Z,42.13
2022-08-04T19:14:18.018Z,42.31
2022-08-04T19:16:48.626Z,42.39
2022-08-04T19:19:18.351Z,42.58
2022-08-04T19:22:00.801Z,42.63
2022-08-04T19:24:34.463Z,42.72
2022-08-04T19:27:07.516Z,42.71
2022-08-04T19:29:40.608Z,42.82
2022-08-04T19:32:13.883Z,42.77
2022-08-04T19:34:51.851Z,42.71
2022-08-04T19:37:57.557Z,42.59
2022-08-04T19:40:10.179Z,42.71
2022-08-04T19:42:42.696Z,42.85
2022-08-04T19:45:15.779Z,42.88
2022-08-04T19:48:22.162Z,42.95
2022-08-04T19:50:34.489Z,43.14
2022-08-04T19:53:18.676Z,43.35
2022-08-04T19:55:50.372Z,43.52
2022-08-04T19:58:26.079Z,43.68
2022-08-04T20:01:31.563Z,44.22
2022-08-04T20:04:10.185Z,44.52
2022-08-04T20:06:56.388Z,44.41
2022-08-04T20:09:27.220Z,44.34
2022-08-04T20:11:57.800Z,44.86
2022-08-04T20:14:52.232Z,45.37
2022-08-04T20:18:35.048Z,45.48
2022-08-04T20:20:15.637Z,46.01
2022-08-04T20:22:46.248Z,46.44
2022-08-04T20:25:36.629Z,46.49
2022-08-04T20:28:07.402Z,46.61
2022-08-04T20:30:36.378Z,47.24
2022-08-04T20:33:09.687Z,46.95
2022-08-04T20:36:00.852Z,46.99
2022-08-04T20:38:33.645Z,46.59
2022-08-04T20:41:02.948Z,46.44
2022-08-04T20:43:31.361Z,46.37
2022-08-04T20:45:59.876Z,46.38
2022-08-04T20:48:33.494Z,46.42
2022-08-04T20:51:01.822Z,46.59
2022-08-04T20:53:32.477Z,46.65
2022-08-04T20:56:19.089Z,46.60
2022-08-04T20:59:01.185Z,46.68
2022-08-04T21:01:35.710Z,47.01
2022-08-04T21:04:28.011Z,47.08
2022-08-04T21:06:58.238Z,47.23
2022-08-04T21:09:38.041Z,47.35
2022-08-04T21:12:26.739Z,47.71
2022-08-04T21:15:00.579Z,47.59
2022-08-04T21:17:57.455Z,47.66
2022-08-04T21:20:27.494Z,47.98
2022-08-04T21:25:49.929Z,48.25
2022-08-04T21:28:20.354Z,48.03
2022-08-04T21:30:54.650Z,48.40
2022-08-04T21:33:28.185Z,48.46
2022-08-04T21:36:14.403Z,48.89
2022-08-04T21:38:51.621Z,48.93
2022-08-04T21:41:24.713Z,49.02
2022-08-04T21:43:55.878Z,49.25
2022-08-04T21:46:24.041Z,48.92
2022-08-04T21:48:52.022Z,49.31
2022-08-04T21:52:00.219Z,49.35
2022-08-04T21:54:14.924Z,49.36
2022-08-04T21:56:50.813Z,49.56
2022-08-04T21:59:23.799Z,49.47
2022-08-04T22:02:01.394Z,49.42
2022-08-04T22:04:30.368Z,49.78
2022-08-04T22:07:02.879Z,49.76
2022-08-04T22:09:38.450Z,49.88
2022-08-04T22:12:12.046Z,49.76
2022-08-04T22:14:40.706Z,50.10
2022-08-04T22:17:13.720Z,49.82
2022-08-04T22:19:54.783Z,50.34
2022-08-04T22:22:29.037Z,50.24
2022-08-04T22:25:06.171Z,50.13
2022-08-04T22:28:00.976Z,50.47
2022-08-04T22:30:37.576Z,50.40
2022-08-04T22:33:08.773Z,50.60
2022-08-04T22:35:48.896Z,50.59
2022-08-04T22:38:28.982Z,50.49
2022-08-04T22:41:11.840Z,50.61
2022-08-04T22:43:40.987Z,50.82
2022-08-04T22:46:27.607Z,50.86
2022-08-04T22:48:55.561Z,50.94
2022-08-04T22:51:27.075Z,51.07
2022-08-04T22:53:55.221Z,51.02
2022-08-04T22:56:38.464Z,51.22
2022-08-04T22:59:10.947Z,51.24
2022-08-04T23:02:00.635Z,51.48
2022-08-04T23:04:34.633Z,51.24
2022-08-04T23:07:08.902Z,51.40
2022-08-04T23:09:49.363Z,51.54
2022-08-04T23:12:27.955Z,51.53
2022-08-04T23:14:57.978Z,51.61
2022-08-04T23:17:28.516Z,51.51
2022-08-04T23:19:59.208Z,51.63
2022-08-04T23:22:41.941Z,51.68
2022-08-04T23:25:15.080Z,51.63
2022-08-04T23:27:50.665Z,51.66
2022-08-04T23:30:24.967Z,51.76
2022-08-04T23:32:58.617Z,51.82
2022-08-04T23:35:26.674Z,51.85
2022-08-04T23:37:57.361Z,51.94
2022-08-04T23:40:33.988Z,51.92
2022-08-04T23:43:17.094Z,51.83
2022-08-04T23:46:07.092Z,51.99
2022-08-04T23:48:39.354Z,51.98
2022-08-04T23:51:14.000Z,52.02
2022-08-04T23:54:03.988Z,51.93
2022-08-04T23:56:35.701Z,52.11
2022-08-04T23:59:06.151Z,52.08
